Time;durP1;ratioP1;P1;durP2;ratioP2;P2;SDS_P1;SDS_P2;PMS_P1;PMS_P2;Temp;Humidity;BMP_temperature;BMP_pressure;BME280_temperature;BME280_humidity;BME280_pressure;Samples;Min_cycle;Max_cycle;Signal;HPM_P1;HPM_P2
2023/12/23 00:02:16;;;;;;;0.00;0.00;;;;;;;;;;5047332;28;20032;-89
2023/12/23 00:04:42;;;;;;;0.10;0.10;;;;;;;;;;5050795;28;20150;-89
2023/12/23 00:07:14;;;;;;;0.03;0.03;;;4.30;99.90;;;;;;5044639;28;20575;-89
2023/12/23 00:09:40;;;;;;;0.10;0.10;;;;;;;;;;5049874;28;20029;-90
2023/12/23 00:12:09;;;;;;;0.00;0.00;;;;;;;;;;5050260;28;20036;-88
2023/12/23 00:14:35;;;;;;;0.10;0.10;;;;;;;;;;5055036;28;20580;-88
2023/12/23 00:17:02;;;;;;;0.00;0.00;;;;;;;;;;5052769;28;20032;-89
2023/12/23 00:19:28;;;;;;;0.00;0.00;;;;;;;;;;5047145;28;20029;-87
2023/12/23 00:21:57;;;;;;;0.10;0.10;;;;;;;;;;5047421;28;20575;-89
2023/12/23 00:24:24;;;;;;;0.10;0.10;;;;;;;;;;5048369;28;20032;-88
2023/12/23 00:26:50;;;;;;;0.10;0.10;;;;;;;;;;5049721;28;20174;-88
2023/12/23 00:29:16;;;;;;;0.10;0.10;;;;;;;;;;5050678;28;20056;-89
2023/12/23 00:31:41;;;;;;;0.10;0.10;;;4.60;99.90;;;;;;5047748;28;20501;-88
2023/12/23 00:34:07;;;;;;;0.10;0.10;;;;;;;;;;5050530;28;20035;-89
2023/12/23 00:36:33;;;;;;;0.10;0.10;;;;;;;;;;5050368;28;20388;-89
2023/12/23 00:38:59;;;;;;;0.05;0.05;;;;;;;;;;5049185;28;20503;-89
2023/12/23 00:41:25;;;;;;;0.10;0.10;;;;;;;;;;5048443;28;20037;-87
2023/12/23 00:43:51;;;;;;;0.10;0.10;;;;;;;;;;5049901;28;20040;-88
2023/12/23 00:46:17;;;;;;;0.05;0.05;;;;;;;;;;5054276;28;20365;-89
2023/12/23 00:48:43;;;;;;;0.10;0.10;;;;;;;;;;5046906;28;20033;-89
2023/12/23 00:51:10;;;;;;;0.10;0.10;;;;;;;;;;5045000;28;20095;-88
2023/12/23 00:53:36;;;;;;;0.00;0.00;;;;;;;;;;5050506;28;20055;-88
2023/12/23 00:56:01;;;;;;;0.00;0.00;;;;;;;;;;5049083;28;20115;-88
2023/12/23 00:58:27;;;;;;;0.03;0.03;;;;;;;;;;5046407;28;20017;-88
2023/12/23 01:00:53;;;;;;;0.00;0.00;;;;;;;;;;5049613;28;20082;-88
2023/12/23 01:03:19;;;;;;;0.10;0.10;;;;;;;;;;5052505;28;20062;-88
2023/12/23 01:05:45;;;;;;;0.10;0.10;;;;;;;;;;5046450;28;20060;-89
2023/12/23 01:08:11;;;;;;;0.10;0.10;;;;;;;;;;5045286;28;20609;-88
2023/12/23 01:10:37;;;;;;;0.00;0.00;;;;;;;;;;5048242;28;20029;-88
2023/12/23 01:13:03;;;;;;;0.10;0.10;;;;;;;;;;5049576;28;20082;-88
2023/12/23 01:15:29;;;;;;;0.00;0.00;;;;;;;;;;5050080;28;20389;-88
2023/12/23 01:17:55;;;;;;;0.10;0.10;;;;;;;;;;5051262;28;20035;-88
2023/12/23 01:20:21;;;;;;;0.10;0.10;;;;;;;;;;5051842;28;20024;-88
2023/12/23 01:22:47;;;;;;;0.00;0.00;;;4.50;99.90;;;;;;5051456;28;20025;-87
2023/12/23 01:25:13;;;;;;;0.10;0.10;;;;;;;;;;5050924;28;20035;-87
2023/12/23 01:27:38;;;;;;;0.10;0.10;;;4.60;99.90;;;;;;5049531;28;20403;-87
2023/12/23 01:30:05;;;;;;;0.00;0.00;;;4.70;99.90;;;;;;5049834;28;20069;-88
2023/12/23 01:32:31;;;;;;;0.10;0.10;;;;;;;;;;5047326;28;20029;-87
2023/12/23 01:34:57;;;;;;;0.10;0.10;;;;;;;;;;5045537;28;20059;-87
2023/12/23 01:37:23;;;;;;;0.10;0.10;;;;;;;;;;5047428;28;20128;-87
2023/12/23 01:39:49;;;;;;;0.10;0.10;;;;;;;;;;5049317;28;20029;-87
2023/12/23 01:42:15;;;;;;;0.10;0.10;;;;;;;;;;5049985;28;20036;-87
2023/12/23 01:44:40;;;;;;;0.00;0.00;;;;;;;;;;5049488;28;20082;-87
2023/12/23 01:47:07;;;;;;;0.10;0.10;;;;;;;;;;5048727;28;20060;-87
2023/12/23 01:49:34;;;;;;;0.08;0.08;;;4.60;99.90;;;;;;5047384;28;20021;-88
2023/12/23 01:52:00;;;;;;;0.10;0.10;;;4.60;99.90;;;;;;5050206;28;20061;-88
2023/12/23 01:54:27;;;;;;;0.10;0.10;;;4.60;99.90;;;;;;5056135;28;20037;-87
2023/12/23 01:56:53;;;;;;;0.10;0.10;;;;;;;;;;5051803;28;20032;-88
2023/12/23 01:59:19;;;;;;;0.10;0.10;;;;;;;;;;5050433;28;20033;-88
2023/12/23 02:01:45;;;;;;;0.10;0.10;;;;;;;;;;5050997;28;20029;-87
2023/12/23 02:04:11;;;;;;;0.10;0.10;;;;;;;;;;5050993;28;20102;-88
2023/12/23 02:06:37;;;;;;;0.03;0.03;;;;;;;;;;5049069;28;20028;-88
2023/12/23 02:09:03;;;;;;;0.10;0.10;;;4.80;99.90;;;;;;5048780;28;20108;-89
2023/12/23 02:11:51;;;;;;;0.10;0.10;;;4.80;99.90;;;;;;5055722;28;20041;-87
2023/12/23 02:14:31;;;;;;;0.10;0.10;;;4.80;99.90;;;;;;5051856;28;20134;-88
2023/12/23 02:16:57;;;;;;;0.10;0.10;;;;;;;;;;5044436;28;20025;-87
2023/12/23 02:19:23;;;;;;;0.05;0.05;;;;;;;;;;5049620;28;20035;-89
2023/12/23 02:21:48;;;;;;;0.10;0.10;;;;;;;;;;5049768;28;20052;-87
2023/12/23 02:24:14;;;;;;;0.10;0.10;;;;;;;;;;5050632;28;20040;-87
2023/12/23 02:26:42;;;;;;;0.05;0.05;;;4.70;99.90;;;;;;5050737;28;20048;-87
2023/12/23 02:29:09;;;;;;;0.10;0.10;;;;;;;;;;5048394;28;20076;-89
2023/12/23 02:31:35;;;;;;;0.10;0.10;;;4.60;99.90;;;;;;5050201;28;20037;-88
2023/12/23 02:34:01;;;;;;;0.10;0.10;;;;;;;;;;5051123;28;20036;-88
2023/12/23 02:36:27;;;;;;;0.00;0.00;;;;;;;;;;5056824;28;20025;-87
2023/12/23 02:38:53;;;;;;;0.05;0.05;;;;;;;;;;5050475;28;20031;-87
2023/12/23 02:41:19;;;;;;;0.10;0.10;;;;;;;;;;5048309;28;20022;-88
2023/12/23 02:43:45;;;;;;;0.03;0.03;;;;;;;;;;5050139;28;20039;-88
2023/12/23 02:46:13;;;;;;;0.00;0.00;;;4.50;99.90;;;;;;5047344;28;20575;-89
2023/12/23 02:48:39;;;;;;;0.10;0.10;;;;;;;;;;5049408;28;20486;-88
2023/12/23 02:51:05;;;;;;;0.00;0.00;;;;;;;;;;5051341;28;20061;-87
2023/12/23 02:53:31;;;;;;;0.10;0.10;;;;;;;;;;5053653;28;20463;-87
2023/12/23 02:55:57;;;;;;;0.10;0.10;;;;;;;;;;5054654;28;20017;-88
2023/12/23 02:58:23;;;;;;;0.10;0.10;;;;;;;;;;5051129;28;20028;-88
2023/12/23 03:00:49;;;;;;;0.10;0.10;;;;;;;;;;5054902;28;20510;-87
2023/12/23 03:03:15;;;;;;;0.10;0.10;;;;;;;;;;5053185;28;20039;-87
2023/12/23 03:05:41;;;;;;;0.10;0.10;;;;;;;;;;5053875;28;20024;-87
2023/12/23 03:08:07;;;;;;;0.10;0.10;;;;;;;;;;5047774;28;20029;-87
2023/12/23 03:10:33;;;;;;;0.10;0.10;;;;;;;;;;5054031;28;20036;-87
2023/12/23 03:12:59;;;;;;;0.10;0.10;;;;;;;;;;5054520;28;20387;-87
2023/12/23 03:15:24;;;;;;;0.10;0.10;;;;;;;;;;5052642;28;20526;-87
2023/12/23 03:17:52;;;;;;;0.10;0.10;;;;;;;;;;5050052;28;20032;-87
2023/12/23 03:20:18;;;;;;;0.10;0.10;;;;;;;;;;5052174;28;20480;-87
2023/12/23 03:22:43;;;;;;;0.10;0.10;;;5.20;99.90;;;;;;5053851;28;20040;-87
2023/12/23 03:25:09;;;;;;;0.10;0.10;;;;;;;;;;5045650;28;20025;-87
2023/12/23 03:27:36;;;;;;;0.10;0.10;;;;;;;;;;5053290;28;20103;-87
2023/12/23 03:30:02;;;;;;;0.03;0.03;;;;;;;;;;5052114;28;20032;-86
2023/12/23 03:32:28;;;;;;;0.10;0.10;;;;;;;;;;5048584;28;20040;-89
2023/12/23 03:34:54;;;;;;;0.00;0.00;;;;;;;;;;5070641;28;20032;-88
2023/12/23 03:37:20;;;;;;;0.05;0.05;;;;;;;;;;5055683;28;20471;-87
2023/12/23 03:39:45;;;;;;;0.10;0.10;;;;;;;;;;5087253;28;20036;-87
2023/12/23 03:42:11;;;;;;;0.10;0.10;;;;;;;;;;5061269;28;20025;-88
2023/12/23 03:44:37;;;;;;;0.10;0.10;;;;;;;;;;5054047;28;20033;-89
2023/12/23 03:47:03;;;;;;;0.10;0.10;;;;;;;;;;5058185;28;20032;-87
2023/12/23 03:49:29;;;;;;;0.10;0.10;;;;;;;;;;5061552;28;20025;-88
2023/12/23 03:51:55;;;;;;;0.10;0.10;;;;;;;;;;5060600;28;20442;-86
2023/12/23 03:54:21;;;;;;;0.10;0.10;;;;;;;;;;5052346;28;20082;-87
2023/12/23 03:56:47;;;;;;;0.00;0.00;;;;;;;;;;5053277;28;20081;-88
2023/12/23 03:59:13;;;;;;;0.10;0.10;;;5.30;99.90;;;;;;5058615;28;20024;-87
2023/12/23 04:01:39;;;;;;;0.05;0.05;;;;;;;;;;5076168;28;20047;-87
2023/12/23 04:04:05;;;;;;;0.10;0.10;;;;;;;;;;5055908;28;20047;-88
2023/12/23 04:06:31;;;;;;;0.10;0.10;;;;;;;;;;5052226;28;20121;-88
2023/12/23 04:55:33;;;;;;;0.10;0.10;;;;;;;;;;5061562;28;20041;-91
2023/12/23 04:57:59;;;;;;;0.10;0.10;;;;;;;;;;5060921;28;20036;-93
2023/12/23 05:00:25;;;;;;;0.10;0.10;;;;;;;;;;5053602;28;20033;-92
2023/12/23 05:02:51;;;;;;;0.00;0.00;;;;;;;;;;5075267;28;20029;-92
2023/12/23 05:05:17;;;;;;;0.10;0.10;;;;;;;;;;5054758;28;21175;-92
2023/12/23 05:07:43;;;;;;;0.10;0.10;;;;;;;;;;5063510;28;20032;-93
2023/12/23 05:12:42;;;;;;;0.00;0.00;;;;;;;;;;5049369;28;20053;-92
2023/12/23 05:15:08;;;;;;;0.10;0.10;;;;;;;;;;5061700;28;20040;-92
2023/12/23 05:17:34;;;;;;;0.00;0.00;;;;;;;;;;5065108;28;20044;-92
2023/12/23 05:20:00;;;;;;;0.00;0.00;;;;;;;;;;5060122;28;20063;-92
2023/12/23 05:22:26;;;;;;;0.10;0.10;;;;;;;;;;5051495;28;20059;-92
2023/12/23 05:24:52;;;;;;;0.00;0.00;;;;;;;;;;5045408;28;20064;-91
2023/12/23 05:27:18;;;;;;;0.10;0.10;;;;;;;;;;5048001;28;20025;-92
2023/12/23 05:29:45;;;;;;;0.10;0.10;;;;;;;;;;5044504;28;20067;-92
2023/12/23 05:32:11;;;;;;;0.10;0.10;;;;;;;;;;5044726;28;20034;-91
2023/12/23 05:34:37;;;;;;;0.10;0.10;;;;;;;;;;5048843;28;20036;-91
2023/12/23 05:37:03;;;;;;;0.00;0.00;;;;;;;;;;5047451;28;20492;-91
2023/12/23 05:39:29;;;;;;;0.10;0.10;;;;;;;;;;5048805;28;20520;-92
2023/12/23 05:41:55;;;;;;;0.10;0.10;;;;;;;;;;5053786;28;20033;-92
2023/12/23 05:44:21;;;;;;;0.10;0.10;;;;;;;;;;5050831;28;20025;-91
2023/12/23 05:46:47;;;;;;;0.10;0.10;;;;;;;;;;5047770;28;20039;-91
2023/12/23 05:49:13;;;;;;;0.10;0.10;;;;;;;;;;5047312;28;20113;-92
2023/12/23 05:51:39;;;;;;;0.10;0.10;;;;;;;;;;5066630;28;20087;-91
2023/12/23 05:54:05;;;;;;;0.10;0.10;;;;;;;;;;5054915;28;20382;-92
2023/12/23 05:56:31;;;;;;;0.10;0.10;;;;;;;;;;5043192;28;20027;-92
2023/12/23 05:58:57;;;;;;;0.10;0.10;;;;;;;;;;5051490;28;20024;-93
2023/12/23 06:01:25;;;;;;;0.00;0.00;;;;;;;;;;5068796;28;20096;-93
2023/12/23 06:03:51;;;;;;;0.00;0.00;;;;;;;;;;5068338;28;20033;-94
2023/12/23 06:06:17;;;;;;;0.10;0.10;;;;;;;;;;5073315;28;20103;-95
2023/12/23 06:08:43;;;;;;;0.10;0.10;;;;;;;;;;5070745;28;20036;-93
2023/12/23 06:11:11;;;;;;;0.10;0.10;;;;;;;;;;5075888;28;20028;-93
2023/12/23 06:13:37;;;;;;;0.10;0.10;;;;;;;;;;5088920;28;20035;-95
2023/12/23 06:16:06;;;;;;;0.10;0.10;;;;;;;;;;5072603;28;20048;-94
2023/12/23 06:18:32;;;;;;;0.10;0.10;;;;;;;;;;5067812;28;20005;-94
2023/12/23 06:20:58;;;;;;;0.10;0.10;;;;;;;;;;5071076;28;20025;-95
2023/12/23 06:23:24;;;;;;;0.10;0.10;;;;;;;;;;5071394;28;20036;-94
2023/12/23 06:25:50;;;;;;;0.10;0.10;;;;;;;;;;5068641;28;20021;-94
2023/12/23 06:28:16;;;;;;;0.10;0.10;;;;;;;;;;5072280;28;20121;-94
2023/12/23 06:30:42;;;;;;;0.00;0.00;;;;;;;;;;5065519;28;20032;-95
2023/12/23 06:33:08;;;;;;;0.10;0.10;;;;;;;;;;5068244;28;20055;-95
2023/12/23 06:35:34;;;;;;;0.00;0.00;;;;;;;;;;5064108;28;20026;-95
2023/12/23 06:38:00;;;;;;;0.10;0.10;;;;;;;;;;5067862;28;20067;-93
2023/12/23 06:40:28;;;;;;;0.10;0.10;;;;;;;;;;5070194;28;20033;-96
2023/12/23 06:42:54;;;;;;;0.10;0.10;;;;;;;;;;5071859;28;20025;-95
2023/12/23 06:45:20;;;;;;;0.10;0.10;;;;;;;;;;5066604;28;20033;-93
2023/12/23 06:47:46;;;;;;;0.00;0.00;;;;;;;;;;5070329;28;20009;-95
2023/12/23 06:50:12;;;;;;;0.08;0.08;;;;;;;;;;5071490;28;20014;-95
2023/12/23 06:52:38;;;;;;;0.10;0.10;;;;;;;;;;5066631;28;20033;-95
2023/12/23 06:55:04;;;;;;;0.10;0.10;;;;;;;;;;5070892;28;20020;-94
2023/12/23 06:57:30;;;;;;;0.10;0.10;;;;;;;;;;5070342;28;20057;-94
2023/12/23 06:59:58;;;;;;;0.10;0.10;;;;;;;;;;5069795;28;20025;-93
2023/12/23 07:02:24;;;;;;;0.10;0.10;;;;;;;;;;5069973;28;20029;-94
2023/12/23 07:04:50;;;;;;;0.10;0.10;;;;;;;;;;5069675;28;20021;-94
2023/12/23 07:07:16;;;;;;;0.10;0.10;;;;;;;;;;5069997;28;20429;-94
2023/12/23 07:09:42;;;;;;;0.10;0.10;;;;;;;;;;5061291;28;20044;-94
2023/12/23 07:12:08;;;;;;;0.10;0.10;;;;;;;;;;5072998;28;20080;-94
2023/12/23 07:14:34;;;;;;;0.10;0.10;;;;;;;;;;5090729;28;20033;-94
2023/12/23 07:17:00;;;;;;;0.10;0.10;;;;;;;;;;5073444;28;20068;-94
2023/12/23 07:19:26;;;;;;;0.10;0.10;;;;;;;;;;5069801;28;20043;-94
2023/12/23 07:21:53;;;;;;;0.10;0.10;;;;;;;;;;5074345;28;20100;-93
2023/12/23 07:24:22;;;;;;;0.10;0.10;;;;;;;;;;5070533;28;20033;-94
2023/12/23 07:26:48;;;;;;;0.10;0.10;;;;;;;;;;5067075;28;20033;-94
2023/12/23 07:29:14;;;;;;;0.10;0.10;;;;;;;;;;5067112;28;20287;-94
2023/12/23 07:31:40;;;;;;;0.10;0.10;;;;;;;;;;5070531;28;20067;-93
2023/12/23 07:34:06;;;;;;;0.08;0.08;;;;;;;;;;5070961;28;20033;-94
2023/12/23 07:36:32;;;;;;;0.10;0.10;;;;;;;;;;5071095;28;20028;-93
2023/12/23 07:38:58;;;;;;;0.10;0.10;;;;;;;;;;5071139;28;20128;-93
2023/12/23 07:41:24;;;;;;;0.10;0.10;;;;;;;;;;5071708;28;20020;-94
2023/12/23 07:43:50;;;;;;;0.10;0.10;;;;;;;;;;5073207;28;20096;-93
2023/12/23 07:46:16;;;;;;;0.10;0.10;;;;;;;;;;5071930;28;20024;-93
2023/12/23 07:48:42;;;;;;;0.10;0.10;;;;;;;;;;5072605;28;20070;-94
2023/12/23 07:51:08;;;;;;;0.00;0.00;;;;;;;;;;5070011;28;20029;-93
2023/12/23 07:53:35;;;;;;;0.10;0.10;;;;;;;;;;5085774;28;20029;-94
2023/12/23 07:56:01;;;;;;;0.10;0.10;;;;;;;;;;5069258;28;20029;-95
2023/12/23 07:58:27;;;;;;;0.10;0.10;;;;;;;;;;5069164;28;20056;-94
2023/12/23 08:00:53;;;;;;;0.00;0.00;;;;;;;;;;5067268;28;20025;-93
2023/12/23 08:03:19;;;;;;;0.10;0.10;;;;;;;;;;5069447;28;20527;-94
2023/12/23 08:05:45;;;;;;;0.10;0.10;;;;;;;;;;5082302;28;20041;-93
2023/12/23 08:08:11;;;;;;;0.10;0.10;;;;;;;;;;5070693;28;20112;-93
2023/12/23 08:10:40;;;;;;;0.10;0.10;;;;;;;;;;5069316;28;20049;-95
2023/12/23 08:13:07;;;;;;;0.10;0.10;;;;;;;;;;5070405;28;20078;-93
2023/12/23 08:15:33;;;;;;;0.10;0.10;;;;;;;;;;5070709;28;20032;-93
2023/12/23 08:17:59;;;;;;;0.10;0.10;;;;;;;;;;5067047;28;20021;-94
2023/12/23 08:20:25;;;;;;;0.10;0.10;;;;;;;;;;5065998;28;20031;-91
2023/12/23 08:22:51;;;;;;;0.10;0.10;;;;;;;;;;5060936;28;20061;-93
2023/12/23 08:25:18;;;;;;;0.10;0.10;;;;;;;;;;5055688;28;20025;-92
2023/12/23 08:27:44;;;;;;;0.10;0.10;;;;;;;;;;5061196;28;20144;-92
2023/12/23 08:30:10;;;;;;;0.10;0.10;;;;;;;;;;5056433;28;20052;-92
2023/12/23 08:32:36;;;;;;;0.10;0.10;;;;;;;;;;5058383;28;20493;-92
2023/12/23 08:35:02;;;;;;;0.10;0.10;;;;;;;;;;5056271;28;20127;-92
2023/12/23 08:37:28;;;;;;;0.10;0.10;;;;;;;;;;5061341;28;20021;-92
2023/12/23 08:39:54;;;;;;;0.10;0.10;;;;;;;;;;5063509;28;20036;-92
2023/12/23 08:42:20;;;;;;;0.10;0.10;;;;;;;;;;5054813;28;20021;-92
2023/12/23 08:44:46;;;;;;;0.10;0.10;;;;;;;;;;5053390;28;20037;-91
2023/12/23 08:47:12;;;;;;;0.10;0.10;;;;;;;;;;5053408;28;20115;-92
2023/12/23 08:49:39;;;;;;;0.10;0.10;;;;;;;;;;5051714;28;20021;-93
2023/12/23 08:52:05;;;;;;;0.10;0.10;;;;;;;;;;5066757;28;20029;-92
2023/12/23 08:54:31;;;;;;;0.10;0.10;;;;;;;;;;5057275;28;20032;-92
2023/12/23 08:56:57;;;;;;;0.10;0.10;;;;;;;;;;5053853;28;20405;-93
2023/12/23 08:59:23;;;;;;;0.10;0.10;;;;;;;;;;5052167;28;20021;-92
2023/12/23 09:01:49;;;;;;;0.10;0.10;;;;;;;;;;5051926;28;20061;-91
2023/12/23 09:04:16;;;;;;;0.10;0.10;;;;;;;;;;5050793;28;20060;-92
2023/12/23 09:06:42;;;;;;;0.10;0.10;;;;;;;;;;5054531;28;20148;-92
2023/12/23 09:09:08;;;;;;;0.10;0.10;;;;;;;;;;5054017;28;20401;-92
2023/12/23 09:11:34;;;;;;;0.10;0.10;;;;;;;;;;5053742;28;20037;-93
2023/12/23 09:14:00;;;;;;;0.00;0.00;;;;;;;;;;5053982;28;20063;-92
2023/12/23 09:16:26;;;;;;;0.10;0.10;;;;;;;;;;5051957;28;20082;-93
2023/12/23 09:18:51;;;;;;;0.10;0.10;;;;;;;;;;5056552;28;20151;-91
2023/12/23 09:21:18;;;;;;;0.10;0.10;;;;;;;;;;5057045;28;20025;-93
2023/12/23 09:23:44;;;;;;;0.10;0.10;;;;;;;;;;5060955;28;20037;-93
2023/12/23 09:26:11;;;;;;;0.10;0.10;;;;;;;;;;5059472;28;20035;-92
2023/12/23 09:28:36;;;;;;;0.05;0.05;;;;;;;;;;5058385;28;20033;-92
2023/12/23 09:31:02;;;;;;;0.10;0.10;;;;;;;;;;5070549;28;20060;-93
2023/12/23 09:33:28;;;;;;;0.10;0.10;;;;;;;;;;5076082;28;20024;-93
2023/12/23 09:35:54;;;;;;;0.10;0.10;;;;;;;;;;5066171;28;20044;-93
2023/12/23 09:38:20;;;;;;;0.10;0.10;;;;;;;;;;5066560;28;20081;-93
2023/12/23 09:40:46;;;;;;;0.10;0.10;;;;;;;;;;5073295;28;20029;-93
2023/12/23 09:43:14;;;;;;;0.10;0.10;;;5.40;99.90;;;;;;5061242;28;20021;-93
2023/12/23 09:48:25;;;;;;;0.10;0.10;;;;;;;;;;5060107;28;20843;-93
2023/12/23 09:50:51;;;;;;;0.10;0.10;;;;;;;;;;5059895;28;20103;-92
2023/12/23 09:53:20;;;;;;;0.00;0.00;;;5.40;99.90;;;;;;5046633;28;20031;-93
2023/12/23 09:55:48;;;;;;;0.10;0.10;;;5.30;99.90;;;;;;5046038;28;20028;-92
2023/12/23 09:58:14;;;;;;;0.10;0.10;;;;;;;;;;5052039;28;20025;-92
2023/12/23 10:00:40;;;;;;;0.10;0.10;;;;;;;;;;5050687;28;20040;-92
2023/12/23 10:03:06;;;;;;;0.10;0.10;;;;;;;;;;5050033;28;20675;-92
2023/12/23 10:05:34;;;;;;;0.10;0.10;;;;;;;;;;5046436;28;20052;-92
2023/12/23 10:08:00;;;;;;;0.10;0.10;;;;;;;;;;5044974;28;20027;-91
2023/12/23 10:10:26;;;;;;;0.10;0.10;;;;;;;;;;5049196;28;20111;-92
2023/12/23 10:12:53;;;;;;;0.10;0.10;;;;;;;;;;5043628;28;20509;-93
2023/12/23 10:15:19;;;;;;;0.10;0.10;;;;;;;;;;5048798;28;20029;-93
2023/12/23 10:17:45;;;;;;;0.10;0.10;;;;;;;;;;5048997;28;20029;-92
2023/12/23 10:20:13;;;;;;;0.10;0.10;;;;;;;;;;5041076;28;20044;-92
2023/12/23 10:22:38;;;;;;;0.10;0.10;;;;;;;;;;5046656;28;20021;-92
2023/12/23 10:25:05;;;;;;;0.10;0.10;;;;;;;;;;5047439;28;20032;-92
2023/12/23 10:27:32;;;;;;;0.10;0.10;;;5.30;99.90;;;;;;5048621;28;20021;-92
2023/12/23 10:29:59;;;;;;;0.10;0.10;;;5.30;99.90;;;;;;5046480;28;20033;-91
2023/12/23 10:32:27;;;;;;;0.08;0.08;;;5.30;99.90;;;;;;5045657;28;20448;-91
2023/12/23 10:35:00;;;;;;;0.10;0.10;;;5.30;99.90;;;;;;5046777;28;20048;-91
2023/12/23 10:37:26;;;;;;;0.10;0.10;;;;;;;;;;5046350;28;20078;-92
2023/12/23 10:40:09;;;;;;;0.10;0.10;;;5.40;99.90;;;;;;5048870;28;20033;-92
2023/12/23 10:42:36;;;;;;;0.10;0.10;;;;;;;;;;5045932;28;20025;-92
2023/12/23 10:45:02;;;;;;;0.10;0.10;;;;;;;;;;5052733;28;20058;-92
2023/12/23 10:47:28;;;;;;;0.10;0.10;;;;;;;;;;5054270;28;20024;-92
2023/12/23 10:49:56;;;;;;;0.10;0.10;;;;;;;;;;5050170;28;20096;-91
2023/12/23 10:52:23;;;;;;;0.10;0.10;;;5.40;99.90;;;;;;5049123;28;20025;-92
2023/12/23 10:54:49;;;;;;;0.10;0.10;;;;;;;;;;5049192;28;20032;-91
2023/12/23 10:57:15;;;;;;;0.10;0.10;;;5.40;99.90;;;;;;5052044;28;20032;-91
2023/12/23 10:59:41;;;;;;;0.10;0.10;;;;;;;;;;5049020;28;20124;-91
2023/12/23 11:02:14;;;;;;;0.10;0.10;;;5.20;99.90;;;;;;5047218;28;20025;-91
2023/12/23 11:04:51;;;;;;;0.10;0.10;;;5.20;99.90;;;;;;5034135;28;20059;-91
2023/12/23 11:07:20;;;;;;;0.10;0.10;;;5.20;99.90;;;;;;5048154;28;20125;-91
2023/12/23 11:09:48;;;;;;;0.10;0.10;;;5.20;99.90;;;;;;5045702;28;20409;-91
2023/12/23 11:12:15;;;;;;;0.10;0.10;;;5.30;99.90;;;;;;5052177;28;20436;-92
2023/12/23 11:14:41;;;;;;;0.10;0.10;;;;;;;;;;5052706;28;20036;-91
2023/12/23 11:17:25;;;;;;;0.10;0.10;;;5.40;99.90;;;;;;5050132;28;20033;-92
2023/12/23 11:19:51;;;;;;;0.10;0.10;;;;;;;;;;5052022;28;20040;-92
2023/12/23 11:22:24;;;;;;;0.10;0.10;;;5.50;99.90;;;;;;5052761;28;20038;-92
2023/12/23 11:24:49;;;;;;;0.10;0.10;;;;;;;;;;5061083;28;20496;-92
2023/12/23 11:27:37;;;;;;;0.10;0.10;;;5.50;99.90;;;;;;5050517;28;20039;-92
2023/12/23 11:30:04;;;;;;;0.10;0.10;;;5.80;99.90;;;;;;5045063;28;20033;-91
2023/12/23 11:32:33;;;;;;;0.10;0.10;;;5.50;99.90;;;;;;5046963;28;20048;-92
2023/12/23 11:35:00;;;;;;;0.10;0.10;;;;;;;;;;5050611;28;20029;-92
2023/12/23 11:37:50;;;;;;;0.10;0.10;;;5.60;99.90;;;;;;5050236;28;20025;-91
2023/12/23 11:40:17;;;;;;;0.10;0.10;;;5.70;99.90;;;;;;5051419;28;20090;-92
2023/12/23 11:42:43;;;;;;;0.00;0.00;;;;;;;;;;5049343;28;20061;-92
2023/12/23 11:45:11;;;;;;;0.10;0.10;;;5.70;99.90;;;;;;5048290;28;20029;-92
2023/12/23 11:47:37;;;;;;;0.10;0.10;;;;;;;;;;5045099;28;20998;-91
2023/12/23 11:50:03;;;;;;;0.10;0.10;;;;;;;;;;5050207;28;20404;-92
2023/12/23 11:52:29;;;;;;;0.10;0.10;;;;;;;;;;5048321;28;20652;-92
2023/12/23 11:54:55;;;;;;;0.10;0.10;;;;;;;;;;5040608;28;20037;-93
2023/12/23 11:57:21;;;;;;;0.10;0.10;;;;;;;;;;5048862;28;20119;-91
2023/12/23 11:59:48;;;;;;;0.10;0.10;;;5.80;99.90;;;;;;5046438;28;20591;-91
2023/12/23 12:02:14;;;;;;;0.10;0.10;;;;;;;;;;5050310;28;20370;-91
2023/12/23 12:04:40;;;;;;;0.10;0.10;;;;;;;;;;5052440;28;20040;-91
2023/12/23 12:07:06;;;;;;;0.10;0.10;;;;;;;;;;5050610;28;20032;-91
2023/12/23 12:09:32;;;;;;;0.08;0.08;;;;;;;;;;5047078;28;20060;-92
2023/12/23 12:11:59;;;;;;;0.10;0.10;;;5.70;99.90;;;;;;5048031;28;20090;-91
2023/12/23 12:14:26;;;;;;;0.10;0.10;;;5.80;99.90;;;;;;5050273;28;20029;-91
2023/12/23 12:16:52;;;;;;;0.10;0.10;;;;;;;;;;5045052;28;20034;-91
2023/12/23 12:19:18;;;;;;;0.10;0.10;;;;;;;;;;5046212;28;20026;-91
2023/12/23 12:21:44;;;;;;;0.10;0.10;;;;;;;;;;5047090;28;20079;-91
2023/12/23 12:24:10;;;;;;;0.10;0.10;;;;;;;;;;5046597;28;20063;-91
2023/12/23 12:26:36;;;;;;;0.10;0.10;;;;;;;;;;5049261;28;20029;-91
2023/12/23 12:29:03;;;;;;;0.10;0.10;;;5.80;99.90;;;;;;5045260;28;20064;-91
2023/12/23 12:31:30;;;;;;;0.10;0.10;;;5.70;99.90;;;;;;5046752;28;20060;-91
2023/12/23 12:33:56;;;;;;;0.05;0.05;;;;;;;;;;5045331;28;20103;-91
2023/12/23 12:36:23;;;;;;;0.00;0.00;;;;;;;;;;5048195;28;20036;-91
2023/12/23 12:38:49;;;;;;;0.10;0.10;;;5.80;99.90;;;;;;5049113;28;20040;-92
2023/12/23 12:41:15;;;;;;;0.10;0.10;;;;;;;;;;5043718;28;20067;-91
2023/12/23 12:43:42;;;;;;;0.10;0.10;;;;;;;;;;5053278;28;20147;-92
2023/12/23 12:46:08;;;;;;;0.10;0.10;;;;;;;;;;5061059;28;20032;-93
2023/12/23 12:48:34;;;;;;;0.10;0.10;;;;;;;;;;5050166;28;20114;-92
2023/12/23 12:51:00;;;;;;;0.10;0.10;;;;;;;;;;5050817;28;20033;-92
2023/12/23 12:53:28;;;;;;;0.10;0.10;;;5.90;99.90;;;;;;5048456;28;20036;-92
2023/12/23 12:55:54;;;;;;;0.10;0.10;;;;;;;;;;5050839;28;20091;-92
2023/12/23 12:58:20;;;;;;;0.03;0.03;;;;;;;;;;5052500;28;20377;-93
2023/12/23 13:00:46;;;;;;;0.10;0.10;;;;;;;;;;5050756;28;20087;-94
2023/12/23 13:03:13;;;;;;;0.10;0.10;;;;;;;;;;5052903;28;20033;-93
2023/12/23 13:05:39;;;;;;;0.10;0.10;;;;;;;;;;5048650;28;20071;-92
2023/12/23 13:08:05;;;;;;;0.10;0.10;;;;;;;;;;5054717;28;20064;-92
2023/12/23 13:10:31;;;;;;;0.10;0.10;;;;;;;;;;5044146;28;20021;-93
2023/12/23 13:12:57;;;;;;;0.10;0.10;;;;;;;;;;5046203;28;20059;-92
2023/12/23 13:15:22;;;;;;;0.10;0.10;;;;;;;;;;5047740;28;20029;-93
2023/12/23 13:17:48;;;;;;;0.10;0.10;;;;;;;;;;5044662;28;20040;-92
2023/12/23 13:20:15;;;;;;;0.10;0.10;;;;;;;;;;5044349;28;20025;-93
2023/12/23 13:22:41;;;;;;;0.10;0.10;;;;;;;;;;5047949;28;20025;-93
2023/12/23 13:25:09;;;;;;;0.08;0.08;;;;;;;;;;5043856;28;20034;-93
2023/12/23 13:27:35;;;;;;;0.10;0.10;;;;;;;;;;5049264;28;20033;-92
2023/12/23 13:30:01;;;;;;;0.00;0.00;;;;;;;;;;5048980;28;20029;-92
2023/12/23 13:32:27;;;;;;;0.10;0.10;;;;;;;;;;5046725;28;20082;-92
2023/12/23 13:34:55;;;;;;;0.10;0.10;;;6.10;99.90;;;;;;5044246;28;20039;-92
2023/12/23 13:37:21;;;;;;;0.10;0.10;;;;;;;;;;5049536;28;20074;-92
2023/12/23 13:39:47;;;;;;;0.10;0.10;;;;;;;;;;5047220;28;20444;-92
2023/12/23 13:42:13;;;;;;;0.10;0.10;;;;;;;;;;5048842;28;20071;-91
2023/12/23 13:44:39;;;;;;;0.10;0.10;;;;;;;;;;5049570;28;20100;-92
2023/12/23 13:47:05;;;;;;;0.10;0.10;;;;;;;;;;5042734;28;20041;-92
2023/12/23 13:49:31;;;;;;;0.10;0.10;;;;;;;;;;5046258;28;20016;-92
2023/12/23 13:51:57;;;;;;;0.10;0.10;;;;;;;;;;5048647;28;20587;-91
2023/12/23 13:54:25;;;;;;;0.08;0.08;;;;;;;;;;5048013;28;20020;-92
2023/12/23 13:56:51;;;;;;;0.10;0.10;;;;;;;;;;5040454;28;20070;-92
2023/12/23 13:59:17;;;;;;;0.10;0.10;;;;;;;;;;5034264;28;20025;-92
2023/12/23 14:01:43;;;;;;;0.10;0.10;;;;;;;;;;5035697;28;20079;-93
2023/12/23 14:04:09;;;;;;;0.10;0.10;;;;;;;;;;5041987;28;20102;-92
2023/12/23 14:06:35;;;;;;;0.10;0.10;;;;;;;;;;5045472;28;20094;-92
2023/12/23 14:09:01;;;;;;;0.10;0.10;;;;;;;;;;5050748;28;20029;-92
2023/12/23 14:11:27;;;;;;;0.10;0.10;;;;;;;;;;5046294;28;20482;-92
2023/12/23 14:13:53;;;;;;;0.10;0.10;;;;;;;;;;5049883;28;20036;-93
2023/12/23 14:16:19;;;;;;;0.10;0.10;;;;;;;;;;5052042;28;20075;-93
2023/12/23 14:18:45;;;;;;;0.10;0.10;;;;;;;;;;5047337;28;20056;-92
2023/12/23 14:21:11;;;;;;;0.10;0.10;;;;;;;;;;5046564;28;20028;-92
2023/12/23 14:23:37;;;;;;;0.10;0.10;;;;;;;;;;5059675;28;20033;-92
2023/12/23 14:26:03;;;;;;;0.10;0.10;;;;;;;;;;5052411;28;20108;-91
2023/12/23 14:28:29;;;;;;;0.10;0.10;;;;;;;;;;5057132;28;20085;-92
2023/12/23 14:30:54;;;;;;;0.10;0.10;;;;;;;;;;5053092;28;20033;-92
2023/12/23 14:33:20;;;;;;;0.10;0.10;;;;;;;;;;5047268;28;20043;-92
2023/12/23 14:35:47;;;;;;;0.10;0.10;;;;;;;;;;5050012;28;20029;-92
2023/12/23 14:38:13;;;;;;;0.10;0.10;;;;;;;;;;5050308;28;20033;-92
2023/12/23 14:40:39;;;;;;;0.08;0.08;;;;;;;;;;5046166;28;20111;-92
2023/12/23 14:43:05;;;;;;;0.10;0.10;;;;;;;;;;5042367;28;20028;-92
2023/12/23 14:45:31;;;;;;;0.10;0.10;;;;;;;;;;5052189;28;20510;-91
2023/12/23 14:47:57;;;;;;;0.10;0.10;;;;;;;;;;5048925;28;20056;-92
2023/12/23 14:50:23;;;;;;;0.10;0.10;;;;;;;;;;5045565;28;20036;-92
2023/12/23 14:52:49;;;;;;;0.10;0.10;;;;;;;;;;5040963;28;20037;-92
2023/12/23 14:55:15;;;;;;;0.10;0.10;;;;;;;;;;5044124;28;20400;-92
2023/12/23 14:57:41;;;;;;;0.10;0.10;;;;;;;;;;5038315;28;20094;-92
2023/12/23 15:06:48;;;;;;;0.10;0.10;;;;;;;;;;5039102;28;20039;-92
2023/12/23 15:09:14;;;;;;;0.10;0.10;;;;;;;;;;5076106;28;20047;-92
2023/12/23 15:11:40;;;;;;;0.10;0.10;;;;;;;;;;5079468;28;20037;-92
2023/12/23 15:14:06;;;;;;;0.10;0.10;;;;;;;;;;5064010;28;20059;-92
2023/12/23 15:16:33;;;;;;;0.10;0.10;;;;;;;;;;5065565;28;20040;-92
2023/12/23 15:18:59;;;;;;;0.00;0.00;;;;;;;;;;5066584;28;20760;-94
2023/12/23 15:21:26;;;;;;;0.10;0.10;;;;;;;;;;5065126;28;20009;-92
2023/12/23 15:23:52;;;;;;;0.10;0.10;;;;;;;;;;5068793;28;20021;-93